createdAt,value
2018-02-25T00:01:30.423Z,11.53
2018-02-25T00:03:58.021Z,11.80
2018-02-25T00:06:27.217Z,11.77
2018-02-25T00:08:56.998Z,11.63
2018-02-25T00:11:25.471Z,11.93
2018-02-25T00:16:28.018Z,11.40
2018-02-25T00:18:55.625Z,10.53
2018-02-25T00:21:23.478Z,10.47
2018-02-25T00:23:51.174Z,11.60
2018-02-25T00:26:18.785Z,11.10
2018-02-25T00:28:46.400Z,11.83
2018-02-25T00:31:18.484Z,9.70
2018-02-25T00:33:46.866Z,11.13
2018-02-25T00:36:16.542Z,10.13
2018-02-25T00:38:44.236Z,11.13
2018-02-25T00:41:12.678Z,10.73
2018-02-25T00:43:40.300Z,10.30
2018-02-25T00:46:08.432Z,11.13
2018-02-25T00:48:36.029Z,9.70
2018-02-25T00:51:03.629Z,11.07
2018-02-25T00:53:31.206Z,10.73
2018-02-25T00:55:59.814Z,9.90
2018-02-25T00:58:28.854Z,10.50
2018-02-25T01:00:57.868Z,10.13
2018-02-25T01:03:27.249Z,10.33
2018-02-25T01:05:54.885Z,10.87
2018-02-25T01:08:22.486Z,10.00
2018-02-25T01:10:52.450Z,9.50
2018-02-25T01:13:20.293Z,11.30
2018-02-25T01:15:47.859Z,9.60
2018-02-25T01:18:16.993Z,11.10
2018-02-25T01:20:45.739Z,9.00
2018-02-25T01:23:14.083Z,8.87
2018-02-25T01:25:41.646Z,10.63
2018-02-25T01:28:09.532Z,9.23
2018-02-25T01:30:37.084Z,10.77
2018-02-25T01:33:04.747Z,12.83
2018-02-25T01:35:33.374Z,10.90
2018-02-25T01:38:00.923Z,9.70
2018-02-25T01:40:29.415Z,11.13
2018-02-25T01:42:57.862Z,10.00
2018-02-25T01:45:27.336Z,9.20
2018-02-25T01:47:54.963Z,9.83
2018-02-25T01:50:23.719Z,10.27
2018-02-25T01:52:51.266Z,9.90
2018-02-25T01:55:18.888Z,10.20
2018-02-25T01:57:47.776Z,9.80
2018-02-25T02:00:15.333Z,8.63
2018-02-25T02:02:43.470Z,9.03
2018-02-25T02:05:12.832Z,9.10
2018-02-25T02:07:40.395Z,9.93
2018-02-25T02:10:09.575Z,9.50
2018-02-25T02:12:37.907Z,9.40
2018-02-25T02:15:09.112Z,9.97
2018-02-25T02:17:37.308Z,9.23
2018-02-25T02:20:06.561Z,10.10
2018-02-25T02:22:34.682Z,9.80
2018-02-25T02:25:02.242Z,10.93
2018-02-25T02:27:30.988Z,9.30
2018-02-25T02:29:58.787Z,9.40
2018-02-25T02:32:26.342Z,8.97
2018-02-25T02:34:53.920Z,9.83
2018-02-25T02:47:06.526Z,8.17
2018-02-25T02:49:34.892Z,9.47
2018-02-25T02:52:03.123Z,8.10
2018-02-25T02:54:30.705Z,7.30
2018-02-25T02:56:59.905Z,8.47
2018-02-25T02:59:27.452Z,9.00
2018-02-25T03:01:55.071Z,9.73
2018-02-25T03:04:23.399Z,9.47
2018-02-25T03:06:51.173Z,9.00
2018-02-25T03:09:18.712Z,8.73
2018-02-25T03:11:46.316Z,9.47
2018-02-25T03:14:14.632Z,9.50
2018-02-25T03:16:42.195Z,9.47
2018-02-25T03:19:09.744Z,9.70
2018-02-25T03:21:37.268Z,10.43
2018-02-25T03:24:04.872Z,10.13
2018-02-25T03:26:32.425Z,10.63
2018-02-25T03:29:00.834Z,10.50
2018-02-25T03:31:28.420Z,11.13
2018-02-25T03:33:56.040Z,10.80
2018-02-25T03:36:23.597Z,11.33
2018-02-25T03:38:51.180Z,11.13
2018-02-25T03:41:18.718Z,12.33
2018-02-25T03:43:46.302Z,11.40
2018-02-25T03:46:14.832Z,10.93
2018-02-25T03:48:42.448Z,11.10
2018-02-25T03:51:10.021Z,12.17
2018-02-25T03:53:37.859Z,12.43
2018-02-25T03:56:05.434Z,10.63
2018-02-25T03:58:33.012Z,12.57
2018-02-25T04:01:00.548Z,14.90
2018-02-25T04:03:28.109Z,12.73
2018-02-25T04:05:55.677Z,12.67
2018-02-25T04:08:23.263Z,12.83
2018-02-25T04:10:50.791Z,13.60
2018-02-25T04:13:18.841Z,12.03
2018-02-25T04:15:46.452Z,12.90
2018-02-25T04:18:14.014Z,12.90
2018-02-25T04:20:41.569Z,13.47
2018-02-25T04:23:09.918Z,11.63
2018-02-25T04:25:37.520Z,14.07
2018-02-25T04:28:05.086Z,12.30
2018-02-25T04:30:33.392Z,13.10
2018-02-25T04:33:02.720Z,13.50
2018-02-25T04:35:30.583Z,12.83
2018-02-25T04:37:58.143Z,13.60
2018-02-25T04:40:25.704Z,14.90
2018-02-25T04:42:53.253Z,13.33
2018-02-25T04:45:20.838Z,12.63
2018-02-25T04:47:48.380Z,12.70
2018-02-25T04:50:16.266Z,12.90
2018-02-25T04:52:43.840Z,14.07
2018-02-25T04:55:11.412Z,13.70
2018-02-25T04:57:39.770Z,13.67
2018-02-25T05:00:08.228Z,14.33
2018-02-25T05:02:35.811Z,14.60
2018-02-25T05:05:04.893Z,14.53
2018-02-25T05:07:33.169Z,14.33
2018-02-25T05:10:00.721Z,13.43
2018-02-25T05:12:28.291Z,14.87
2018-02-25T05:14:56.711Z,15.33
2018-02-25T05:17:25.517Z,14.63
2018-02-25T05:19:53.107Z,13.83
2018-02-25T05:22:20.953Z,15.27
2018-02-25T05:24:48.540Z,14.73
2018-02-25T05:27:16.121Z,13.87
2018-02-25T05:29:44.144Z,15.55
2018-02-25T05:32:11.707Z,13.77
2018-02-25T05:34:39.316Z,15.23
2018-02-25T05:37:06.919Z,15.27
2018-02-25T05:39:34.439Z,16.57
2018-02-25T05:42:02.694Z,14.70
2018-02-25T05:44:30.274Z,14.67
2018-02-25T05:46:58.616Z,14.77
2018-02-25T05:49:26.758Z,16.23
2018-02-25T05:51:54.372Z,15.63
2018-02-25T05:54:22.745Z,15.23
2018-02-25T05:56:51.016Z,15.97
2018-02-25T05:59:18.848Z,15.90
2018-02-25T06:01:46.447Z,17.77
2018-02-25T06:04:14.710Z,17.10
2018-02-25T06:06:42.289Z,17.90
2018-02-25T06:09:09.881Z,18.20
2018-02-25T06:11:37.427Z,16.80
2018-02-25T06:14:04.984Z,16.30
2018-02-25T06:16:33.945Z,17.80
2018-02-25T06:19:01.526Z,16.43
2018-02-25T06:21:29.100Z,15.60
2018-02-25T06:23:57.481Z,15.90
2018-02-25T06:26:25.045Z,17.87
2018-02-25T06:28:52.649Z,21.67
2018-02-25T06:31:20.947Z,20.10
2018-02-25T06:33:48.491Z,16.10
2018-02-25T06:36:16.050Z,18.40
2018-02-25T06:38:43.604Z,15.20
2018-02-25T06:41:11.167Z,16.53
2018-02-25T06:43:38.698Z,14.57
2018-02-25T06:46:06.511Z,15.30
2018-02-25T06:48:34.575Z,15.27
2018-02-25T06:51:02.122Z,14.70
2018-02-25T06:53:29.739Z,15.50
2018-02-25T06:55:58.088Z,14.73
2018-02-25T06:58:26.996Z,12.10
2018-02-25T07:00:54.563Z,13.00
2018-02-25T07:03:22.111Z,15.03
2018-02-25T07:05:49.731Z,14.17
2018-02-25T07:08:17.326Z,14.57
2018-02-25T07:10:45.074Z,15.00
2018-02-25T07:13:12.658Z,13.43
2018-02-25T07:15:40.212Z,15.07
2018-02-25T07:18:07.773Z,12.85
2018-02-25T07:20:36.219Z,13.80
2018-02-25T07:23:03.774Z,14.63
2018-02-25T07:25:32.084Z,14.23
2018-02-25T07:27:59.657Z,13.73
2018-02-25T07:30:27.273Z,14.70
2018-02-25T07:32:55.593Z,14.40
2018-02-25T07:35:23.207Z,13.80
2018-02-25T07:37:50.756Z,14.17
2018-02-25T07:40:18.392Z,13.90
2018-02-25T07:42:47.063Z,15.27
2018-02-25T07:45:15.364Z,14.83
2018-02-25T07:47:43.704Z,15.00
2018-02-25T07:50:11.307Z,15.40
2018-02-25T07:52:38.903Z,14.00
2018-02-25T07:55:08.699Z,13.17
2018-02-25T07:57:36.302Z,13.63
2018-02-25T08:00:07.212Z,15.10
2018-02-25T08:02:35.546Z,15.30
2018-02-25T08:05:05.475Z,14.17
2018-02-25T08:07:33.830Z,15.40
2018-02-25T08:10:01.387Z,14.83
2018-02-25T08:12:28.952Z,13.83
2018-02-25T08:14:57.367Z,13.50
2018-02-25T08:17:26.476Z,15.02
2018-02-25T08:19:54.054Z,12.60
2018-02-25T08:22:21.631Z,14.40
2018-02-25T08:24:50.052Z,14.40
2018-02-25T08:27:18.215Z,15.93
2018-02-25T08:29:45.739Z,15.87
2018-02-25T08:32:14.032Z,14.27
2018-02-25T08:34:41.615Z,14.80
2018-02-25T08:37:09.268Z,15.97
2018-02-25T08:39:38.205Z,14.87
2018-02-25T08:42:05.877Z,14.20
2018-02-25T08:44:33.513Z,16.57
2018-02-25T08:47:01.708Z,12.73
2018-02-25T08:49:29.267Z,13.80
2018-02-25T08:51:56.821Z,16.00
2018-02-25T08:54:24.829Z,13.90
2018-02-25T08:56:53.891Z,14.57
2018-02-25T08:59:21.468Z,16.00
2018-02-25T09:01:49.143Z,15.70
2018-02-25T09:04:17.093Z,15.47
2018-02-25T09:06:44.740Z,14.97
2018-02-25T09:09:12.365Z,14.50
2018-02-25T09:11:40.069Z,13.33
2018-02-25T09:14:08.919Z,13.10
2018-02-25T09:16:37.266Z,16.23
2018-02-25T09:19:04.893Z,13.77
2018-02-25T09:21:33.023Z,16.47
2018-02-25T09:24:01.977Z,14.97
2018-02-25T09:26:29.528Z,14.90
2018-02-25T09:28:57.788Z,14.67
2018-02-25T09:31:26.584Z,15.30
2018-02-25T09:33:54.159Z,14.90
2018-02-25T09:36:22.483Z,14.33
2018-02-25T09:38:50.839Z,14.90
2018-02-25T09:41:18.430Z,14.10
2018-02-25T09:43:46.850Z,13.53
2018-02-25T09:46:14.414Z,15.70
2018-02-25T09:48:42.028Z,15.60
2018-02-25T09:51:10.387Z,14.70
2018-02-25T09:53:38.783Z,14.90
2018-02-25T09:56:07.187Z,12.53
2018-02-25T09:58:34.762Z,13.97
2018-02-25T10:01:02.823Z,14.43
2018-02-25T10:03:31.305Z,14.00
2018-02-25T10:05:58.890Z,15.60
2018-02-25T10:08:27.646Z,16.40
2018-02-25T10:10:55.315Z,15.47
2018-02-25T10:13:23.094Z,16.00
2018-02-25T10:15:50.683Z,13.87
2018-02-25T10:18:18.331Z,14.93
2018-02-25T10:20:47.606Z,15.70
2018-02-25T10:23:16.161Z,14.80
2018-02-25T10:25:44.527Z,15.50
2018-02-25T10:28:12.864Z,14.17
2018-02-25T10:30:41.226Z,16.53
2018-02-25T10:33:09.556Z,15.07
2018-02-25T10:35:37.486Z,16.43
2018-02-25T10:38:05.085Z,16.13
2018-02-25T10:40:33.058Z,16.80
2018-02-25T10:43:00.690Z,15.33
2018-02-25T10:45:28.602Z,15.53
2018-02-25T10:47:56.949Z,16.50
2018-02-25T10:50:24.574Z,17.20
2018-02-25T10:52:52.318Z,15.83
2018-02-25T10:55:19.903Z,31.10
2018-02-25T10:57:48.686Z,24.90
2018-02-25T11:00:21.911Z,25.00
2018-02-25T11:02:49.570Z,27.17
2018-02-25T11:05:17.159Z,17.03
2018-02-25T11:07:44.763Z,16.80
2018-02-25T11:10:12.414Z,15.80
2018-02-25T11:12:40.765Z,16.62
2018-02-25T11:15:10.045Z,16.53
2018-02-25T11:17:37.572Z,14.93
2018-02-25T11:20:07.600Z,27.20
2018-02-25T11:22:35.235Z,18.90
2018-02-25T11:25:04.329Z,14.03
2018-02-25T11:27:32.726Z,17.77
2018-02-25T11:30:00.345Z,14.80
2018-02-25T11:32:27.950Z,13.67
2018-02-25T11:34:55.609Z,15.23
2018-02-25T11:37:25.951Z,14.20
2018-02-25T11:39:54.439Z,13.40
2018-02-25T11:42:23.549Z,19.67
2018-02-25T11:44:52.422Z,16.63
2018-02-25T11:47:20.065Z,19.00
2018-02-25T11:49:49.264Z,22.30
2018-02-25T11:52:19.279Z,26.37
2018-02-25T11:54:46.923Z,37.20
2018-02-25T11:57:14.488Z,25.77
2018-02-25T11:59:42.069Z,24.17
2018-02-25T12:02:09.972Z,17.20
2018-02-25T12:04:38.999Z,28.77
2018-02-25T12:07:06.547Z,27.63
2018-02-25T12:09:35.913Z,19.23
2018-02-25T12:12:03.542Z,14.90
2018-02-25T12:14:32.301Z,19.80
2018-02-25T12:16:59.952Z,16.03
2018-02-25T12:19:28.934Z,17.63
2018-02-25T12:21:56.521Z,15.63
2018-02-25T12:24:24.110Z,18.10
2018-02-25T12:26:51.892Z,17.60
2018-02-25T12:29:19.538Z,15.57
2018-02-25T12:31:47.176Z,13.40
2018-02-25T12:34:15.694Z,13.43
2018-02-25T12:36:43.754Z,17.00
2018-02-25T12:39:12.338Z,16.13
2018-02-25T12:41:41.006Z,14.43
2018-02-25T12:44:08.639Z,14.80
2018-02-25T12:46:36.199Z,15.13
2018-02-25T12:49:04.792Z,15.40
2018-02-25T12:51:33.334Z,14.77
2018-02-25T12:54:01.007Z,15.23
2018-02-25T12:56:29.068Z,14.20
2018-02-25T12:58:56.713Z,14.50
2018-02-25T13:01:26.318Z,16.13
2018-02-25T13:03:56.095Z,14.73
2018-02-25T13:06:24.492Z,14.57
2018-02-25T13:08:52.133Z,15.03
2018-02-25T13:11:21.571Z,15.47
2018-02-25T13:13:50.363Z,15.80
2018-02-25T13:16:17.949Z,16.23
2018-02-25T13:18:45.565Z,15.57
2018-02-25T13:21:13.160Z,15.10
2018-02-25T13:23:42.807Z,16.27
2018-02-25T13:26:13.707Z,14.73
2018-02-25T13:28:41.272Z,15.97
2018-02-25T13:31:09.070Z,15.20
2018-02-25T13:33:37.367Z,15.57
2018-02-25T13:36:04.968Z,15.03
2018-02-25T13:38:33.420Z,16.67
2018-02-25T13:41:01.064Z,44.73
2018-02-25T13:43:30.203Z,39.43
2018-02-25T13:45:57.988Z,18.97
2018-02-25T13:48:25.623Z,18.43
2018-02-25T13:50:53.264Z,15.23
2018-02-25T13:53:20.885Z,15.53
2018-02-25T13:55:48.649Z,13.83
2018-02-25T13:58:16.215Z,15.60
2018-02-25T14:00:44.520Z,13.17
2018-02-25T14:03:12.846Z,11.50
2018-02-25T14:05:40.404Z,13.20
2018-02-25T14:08:08.809Z,14.73
2018-02-25T14:10:37.886Z,13.10
2018-02-25T14:13:05.592Z,13.33
2018-02-25T14:15:33.115Z,14.23
2018-02-25T14:18:00.691Z,10.80
2018-02-25T14:20:31.023Z,11.70
2018-02-25T14:22:59.973Z,12.30
2018-02-25T14:25:27.564Z,11.30
2018-02-25T14:27:55.439Z,10.90
2018-02-25T14:30:23.767Z,10.67
2018-02-25T14:32:52.470Z,11.93
2018-02-25T14:35:20.975Z,10.23
2018-02-25T14:37:49.091Z,11.67
2018-02-25T14:40:17.085Z,9.50
2018-02-25T14:42:45.022Z,11.30
2018-02-25T14:45:13.370Z,11.40
2018-02-25T14:47:41.016Z,11.20
2018-02-25T14:50:08.918Z,9.50
2018-02-25T14:52:37.260Z,9.53
2018-02-25T14:55:06.943Z,11.30
2018-02-25T14:57:34.680Z,10.67
2018-02-25T15:00:02.244Z,10.80
2018-02-25T15:02:31.264Z,10.60
2018-02-25T15:05:00.679Z,10.90
2018-02-25T15:07:29.245Z,11.50
2018-02-25T15:09:56.833Z,11.97
2018-02-25T15:12:24.495Z,10.67
2018-02-25T15:14:52.054Z,11.53
2018-02-25T15:17:20.233Z,12.13
2018-02-25T15:19:47.883Z,11.07
2018-02-25T15:22:17.378Z,9.90
2018-02-25T15:24:45.023Z,11.00
2018-02-25T15:27:13.570Z,11.77
2018-02-25T15:29:41.163Z,9.97
2018-02-25T15:32:08.756Z,10.90
2018-02-25T15:34:39.018Z,11.20
2018-02-25T15:37:08.105Z,12.30
2018-02-25T15:39:36.538Z,11.83
2018-02-25T15:42:04.158Z,13.07
2018-02-25T15:44:32.488Z,11.33
2018-02-25T15:47:00.051Z,10.03
2018-02-25T15:49:28.010Z,11.57
2018-02-25T15:51:56.181Z,10.17
2018-02-25T15:54:23.814Z,9.83
2018-02-25T15:56:52.418Z,11.23
2018-02-25T15:59:20.995Z,11.47
2018-02-25T16:01:48.588Z,11.00
2018-02-25T16:04:16.233Z,10.40
2018-02-25T16:06:43.791Z,9.80
2018-02-25T16:09:12.999Z,10.57
2018-02-25T16:11:41.270Z,11.03
2018-02-25T16:14:08.837Z,10.73
2018-02-25T16:16:37.440Z,12.00
2018-02-25T16:19:05.226Z,10.70
2018-02-25T16:21:33.360Z,12.50
2018-02-25T16:24:01.736Z,11.47
2018-02-25T16:26:30.071Z,11.17
2018-02-25T16:28:57.709Z,10.43
2018-02-25T16:31:27.716Z,12.10
2018-02-25T16:33:55.353Z,9.93
2018-02-25T16:36:23.426Z,11.80
2018-02-25T16:38:52.655Z,8.17
2018-02-25T16:41:20.285Z,10.27
2018-02-25T16:43:49.073Z,10.37
2018-02-25T16:46:17.262Z,9.60
2018-02-25T16:48:45.863Z,10.33
2018-02-25T16:51:13.438Z,11.30
2018-02-25T16:53:41.865Z,9.90
2018-02-25T16:56:10.286Z,10.53
2018-02-25T16:58:37.800Z,10.33
2018-02-25T17:01:06.286Z,11.17
2018-02-25T17:03:34.618Z,11.40
2018-02-25T17:06:02.592Z,11.43
2018-02-25T17:08:31.823Z,10.90
2018-02-25T17:10:59.483Z,11.53
2018-02-25T17:13:27.774Z,11.80
2018-02-25T17:15:55.342Z,11.93
2018-02-25T17:18:23.817Z,12.27
2018-02-25T17:20:51.865Z,11.47
2018-02-25T17:23:20.644Z,11.00
2018-02-25T17:25:50.115Z,12.00
2018-02-25T17:28:18.820Z,12.07
2018-02-25T17:30:47.033Z,12.63
2018-02-25T17:33:15.387Z,12.37
2018-02-25T17:35:42.984Z,12.37
2018-02-25T17:38:10.591Z,11.77
2018-02-25T17:40:38.204Z,13.63
2018-02-25T17:43:05.809Z,14.00
2018-02-25T17:45:34.182Z,14.27
2018-02-25T17:48:01.795Z,14.50
2018-02-25T17:50:29.400Z,13.23
2018-02-25T17:52:58.164Z,13.90
2018-02-25T17:55:33.566Z,13.40
2018-02-25T17:57:53.920Z,12.43
2018-02-25T18:00:21.595Z,13.73
2018-02-25T18:02:49.160Z,13.90
2018-02-25T18:05:17.499Z,13.90
2018-02-25T18:07:45.137Z,13.83
2018-02-25T18:10:12.783Z,14.80
2018-02-25T18:12:40.719Z,14.17
2018-02-25T18:15:08.258Z,15.30
2018-02-25T18:17:36.123Z,13.83
2018-02-25T18:20:06.870Z,14.50
2018-02-25T18:22:34.577Z,14.93
2018-02-25T18:25:04.344Z,14.93
2018-02-25T18:27:32.427Z,15.23
2018-02-25T18:29:59.991Z,14.10
2018-02-25T18:32:28.430Z,15.30
2018-02-25T18:34:56.199Z,15.93
2018-02-25T18:37:24.508Z,16.73
2018-02-25T18:39:52.451Z,15.40
2018-02-25T18:42:20.208Z,17.10
2018-02-25T18:44:47.819Z,16.17
2018-02-25T18:47:15.445Z,17.70
2018-02-25T18:49:43.848Z,18.00
2018-02-25T18:52:12.373Z,16.37
2018-02-25T18:54:39.937Z,17.47
2018-02-25T18:57:07.550Z,16.47
2018-02-25T18:59:35.371Z,17.70
2018-02-25T19:02:02.975Z,16.80
2018-02-25T19:04:30.613Z,17.73
2018-02-25T19:06:58.288Z,18.20
2018-02-25T19:09:25.901Z,17.70
2018-02-25T19:11:53.570Z,17.90
2018-02-25T19:14:21.191Z,20.93
2018-02-25T19:16:49.078Z,20.03
2018-02-25T19:19:16.684Z,19.47
2018-02-25T19:21:44.338Z,19.03
2018-02-25T19:24:12.610Z,18.00
2018-02-25T19:26:40.431Z,18.33
2018-02-25T19:29:08.207Z,18.10
2018-02-25T19:31:37.056Z,18.30
2018-02-25T19:34:04.664Z,19.27
2018-02-25T19:36:37.981Z,18.30
2018-02-25T19:39:11.210Z,17.90
2018-02-25T19:41:45.502Z,17.87
2018-02-25T19:44:13.305Z,17.40
2018-02-25T19:46:42.579Z,18.17
2018-02-25T19:49:10.254Z,17.47
2018-02-25T19:51:38.425Z,17.00
2018-02-25T19:54:06.515Z,18.30
2018-02-25T19:56:34.364Z,18.70
2018-02-25T19:59:02.008Z,17.27
2018-02-25T20:01:29.615Z,20.07
2018-02-25T20:03:57.971Z,16.10
2018-02-25T20:06:25.573Z,19.40
2018-02-25T20:08:53.131Z,17.97
2018-02-25T20:11:21.509Z,18.40
2018-02-25T20:13:49.150Z,19.73
2018-02-25T20:16:16.754Z,19.50
2018-02-25T20:18:44.456Z,19.00
2018-02-25T20:21:12.758Z,20.27
2018-02-25T20:23:40.357Z,19.10
2018-02-25T20:26:08.039Z,20.97
2018-02-25T20:28:35.619Z,20.70
2018-02-25T20:31:03.454Z,19.67
2018-02-25T20:33:31.123Z,18.83
2018-02-25T20:35:58.748Z,19.03
2018-02-25T20:38:26.491Z,19.20
2018-02-25T20:40:54.930Z,18.53
2018-02-25T20:43:22.485Z,17.57
2018-02-25T20:45:50.080Z,20.63
2018-02-25T20:48:18.445Z,18.50
2018-02-25T20:50:46.061Z,19.57
2018-02-25T20:53:13.653Z,18.77
2018-02-25T20:55:42.268Z,19.37
2018-02-25T20:58:09.913Z,17.90
2018-02-25T21:00:37.522Z,19.00
2018-02-25T21:03:05.815Z,18.70
2018-02-25T21:05:33.598Z,18.80
2018-02-25T21:08:01.218Z,18.50
2018-02-25T21:10:29.022Z,19.10
2018-02-25T21:12:56.836Z,20.10
2018-02-25T21:15:24.424Z,19.57
2018-02-25T21:17:53.524Z,19.83
2018-02-25T21:20:21.689Z,18.60
2018-02-25T21:22:49.274Z,19.13
2018-02-25T21:25:17.175Z,18.57
2018-02-25T21:27:45.167Z,17.10
2018-02-25T21:30:13.534Z,18.60
2018-02-25T21:32:41.964Z,18.12
2018-02-25T21:35:10.254Z,19.27
2018-02-25T21:37:37.856Z,18.27
2018-02-25T21:40:07.253Z,17.80
2018-02-25T21:42:34.861Z,18.23
2018-02-25T21:45:02.409Z,17.60
2018-02-25T21:47:30.203Z,18.87
2018-02-25T21:49:58.172Z,19.75
2018-02-25T21:52:26.418Z,18.87
2018-02-25T21:54:57.686Z,20.50
2018-02-25T21:57:30.961Z,18.30
2018-02-25T22:00:04.584Z,18.47
2018-02-25T22:02:53.204Z,19.42
2018-02-25T22:05:20.833Z,17.77
2018-02-25T22:07:48.426Z,22.13
2018-02-25T22:10:16.836Z,20.60
2018-02-25T22:12:44.437Z,19.23
2018-02-25T22:15:12.817Z,21.10
2018-02-25T22:17:40.390Z,20.90
2018-02-25T22:20:07.998Z,19.20
2018-02-25T22:22:36.632Z,18.00
2018-02-25T22:25:07.433Z,19.27
2018-02-25T22:27:35.081Z,19.85
2018-02-25T22:30:03.472Z,19.40
2018-02-25T22:32:31.294Z,18.60
2018-02-25T22:34:59.676Z,16.70
2018-02-25T22:37:27.234Z,18.17
2018-02-25T22:39:54.860Z,18.27
2018-02-25T22:42:22.601Z,20.10
2018-02-25T22:44:52.996Z,19.40
2018-02-25T22:47:21.758Z,19.90
2018-02-25T22:49:50.339Z,18.97
2018-02-25T22:52:18.581Z,19.37
2018-02-25T22:54:46.244Z,17.93
2018-02-25T22:57:13.945Z,18.50
2018-02-25T22:59:41.585Z,19.43
2018-02-25T23:02:09.223Z,18.80
2018-02-25T23:04:36.963Z,19.00
2018-02-25T23:07:04.680Z,18.80
2018-02-25T23:09:32.288Z,16.77
2018-02-25T23:11:59.862Z,18.70
2018-02-25T23:14:27.742Z,18.87
2018-02-25T23:16:55.416Z,19.10
2018-02-25T23:19:23.824Z,18.20
2018-02-25T23:21:51.741Z,18.17
2018-02-25T23:24:19.669Z,18.37
2018-02-25T23:26:47.263Z,18.50
2018-02-25T23:29:14.794Z,19.10
2018-02-25T23:31:43.139Z,20.50
2018-02-25T23:34:10.752Z,19.90
2018-02-25T23:36:39.276Z,18.67
2018-02-25T23:39:06.856Z,19.13
2018-02-25T23:41:35.297Z,19.03
2018-02-25T23:44:03.843Z,18.80
2018-02-25T23:46:31.438Z,18.50
2018-02-25T23:48:59.785Z,18.43
2018-02-25T23:51:27.363Z,17.02
2018-02-25T23:53:54.905Z,18.63
2018-02-25T23:56:22.504Z,18.67
2018-02-25T23:58:50.087Z,17.90
